22ème Rallye Terre des Causses
Championnat de France des Rallyes sur Terre
1 1 CUOQ Jean-Marie/GRANDEMANGE Marielle Citroën C4 WRC FA 8W 1:16:25,5 1
2 3 MAURIN Julien/URAL Olivier Citroën DS3 WRC A 8W 1:17:22,7 +00:57,2 +00:57,2 1
3 4 DURBEC Thibault/RENUCCI Jacques-Julien Citroën DS3 WRC A 8W 1:20:11,6 +03:46,1 +02:48,9 1
4 11 GILBERT Quentin/JAMOUL Renaud Skoda Fabia R5 R 5 1:20:12,8 +03:47,3 +00:01,2
5 12 BERFA Jordan/AUGUSTIN Damien HUYNDAI i20 R5 R 5 1:20:38,2 +04:12,7 +00:25,4 1
6 18 PONS Xavier/ORIOL Julia Peugeot 208 T16 R 5 1:21:39,2 +05:13,7 +01:01,0
7 14 FALCO Jean-Marc/BOUERI Jonathan Peugeot 208 T16 R 5 1:21:39,6 +05:14,1 +00:00,4 1
8 9 FERAUD Cyrille/DUCHEMIN Aymeric Citroën C4 WRC FA 8W 1:22:44,4 +06:18,9 +01:04,8 1
9 8 RAOUX Jean-Michel/MAGAT Laurent Citroën DS3 WRC A 8W 1:24:42,9 +08:17,4 +01:58,5 1
10 16 PETIT Jean-Eric/MAURIN Mathieu Ford Fiesta R5 R 5 1:24:54,9 +08:29,4 +00:12,0 1
11 7 CLOT Charles/LEON Thierry Ford Fiesta WRC A 8W 1:25:08,0 +08:42,5 +00:13,1 1
12 5 CHAYNES Gary/TRIBOUT Christian Citroën C4 WRC FA 8W 1:25:53,1 +09:27,6 +00:45,1 1
13 6 ROUSSET Eric/GOSSET Jean-David Citroën Xsara WRC FA 8W 1:26:34,6 +10:09,1 +00:41,5
14 54 PELLIER Laurent/NEYRET-GIGOT Benoît Peugeot 208 VTI R 2 1:26:43,1 +10:17,6 +00:08,5 3
15 59 RIBAUD Quentin/BALME Benoît Peugeot 208 VTI R 2 1:26:56,8 +10:31,3 +00:13,7 1 2 3
16 60 LARIO Taisko/RYYNANEN Sami Peugeot 208 VTI R 2 1:27:11,2 +10:45,7 +00:14,4 3
17 40 MARTI Christian/LAVIALE Jean-Marc Mitsubishi Lancer Evo9 N 4 1:27:20,1 +10:54,6 +00:08,9 1
18 61 GAGO Diogo/DEL BARRIO GARCIA Rodolfo Peugeot 208 VTI R 2 1:27:22,2 +10:56,7 +00:02,1 3
19 19 MORDACQ Arnaud/RATIER Marie-Noelle Mitsubishi Lancer Evo9 N 4 1:27:24,1 +10:58,6 +00:01,9 1
20 50 VEYRARD Didier/TARDY Vincent Subaru Impreza STI FN 4 1:27:51,2 +11:25,7 +00:27,1
21 57 LLARENA Efren/FERNANDEZ Sara Peugeot 208 VTI R 2 1:27:53,9 +11:28,4 +00:02,7 3
22 62 SAHILA Aki/SUORSA Rami Peugeot 208 VTI R 2 1:28:26,3 +12:00,8 +00:32,4 3
23 70 PINHEIRO Karl-Alexandre/LE FLOCH Franck Peugeot 208 VTI R 2 1:28:42,7 +12:17,2 +00:16,4 3
24 15 BESSON Jean-Pascal/ROISSAC Patrice Skoda Fabia R5 R 5 1:28:51,2 +12:25,7 +00:08,5 1
25 20 GAIDOZ Hervé/RICHARD François Subaru Impreza WRX FA 8 1:29:08,0 +12:42,5 +00:16,8 1
26 10 "PIANO"/COTTU Paolo Subaru Impreza WRC FA 8W 1:29:10,0 +12:44,5 +00:02,0
27 37 DESANGLES Yanis/THERON Nicolas Subaru Impreza WRX R 4 1:29:10,3 +12:44,8 +00:00,3
28 36 SALIN Daniel/SALIN Brigitte Subaru Impreza WRX R 4 1:29:19,4 +12:53,9 +00:09,1
29 65 BOSCH Florentin/LAZZARINI Jean-Paul Peugeot 208 VTI R 2 1:29:44,0 +13:18,5 +00:24,6 3
30 17 FRAU Richard/GASTINEL Jean-Francois Ford Fiesta R5 R 5 1:29:49,6 +13:24,1 +00:05,6 1
31 42 CONDAMINES Florian/DELMAS Cyril Subaru Impreza N 4 1:30:08,7 +13:43,2 +00:19,1
32 21 GIRAUD Emmanuel/GIRAUD Grégory Mitsubishi Lancer Evo8 FA 8 1:30:16,9 +13:51,4 +00:08,2
33 30 CHIAVARO Daniel/DUPANLOUP Alexandra Subaru Impreza Sti FA 8 1:30:17,3 +13:51,8 +00:00,4
34 63 WAGEMANS Joachim/DU PAN Anton Peugeot 208 VTI R 2 1:30:18,3 +13:52,8 +00:01,0 3
35 72 TAVENEAU Sam/POINT Clément Peugeot 208 VTI R 2 1:30:31,4 +14:05,9 +00:13,1 3
36 35 MORDACQ Laurent/MORTIER Hervé Mitsubishi Lancer Evo9 R 4 1:30:59,3 +14:33,8 +00:27,9 1
37 52 JULIA David/AUBERTIN Ludovic Peugeot 206 Rc F2 14 1:31:02,3 +14:36,8 +00:03,0 1 2
38 38 MOREL Jean-Luc/GIDEL Philippe Subaru Impreza WRX FN 4 1:31:05,8 +14:40,3 +00:03,5
39 83 MARCHAL Eddy/JOLE Damien Citroën Saxo T4 FA 6K 1:31:07,4 +14:41,9 +00:01,6 1
40 44 GUIGNARD Eric/MEFFRE Didier Subaru Impreza N 4 1:31:19,7 +14:54,2 +00:12,3
41 76 COLNEY Thierry/FORTMANN Patrick Citroën DS3 R3 R 3 1:31:43,6 +15:18,1 +00:23,9 1 2
42 81 VIALLE Lilian/GHIRARDELLO Manuel Renault Clio R3 R 3 1:31:57,4 +15:31,9 +00:13,8 1 2
43 43 PUEL Gérard/PUEL Caroline Mitsubishi Lancer Evo8 FN 4 1:32:25,4 +15:59,9 +00:28,0
44 116 RAYNAUD Gabriel/JULIEN William Seat Ibiza GTI F2 14 1:32:28,4 +16:02,9 +00:03,0 1 2
45 53 VITAL Jean-Pierre/DECOUZON Pierre Citroën Saxo VTS F2 13 1:32:29,1 +16:03,6 +00:00,7 1 2
46 87 SALGUES Gilles/MOUYSSET Jérôme Citroën Saxo T4 FA 6K 1:32:37,7 +16:12,2 +00:08,6
47 71 RAMBAUD Sébastien/RICOU Brice Peugeot 208 VTI R 2 1:33:06,3 +16:40,8 +00:28,6 3
48 46 LOPEZ Yannick/LOPEZ Brice Subaru Impreza WRX N 4 1:33:24,4 +16:58,9 +00:18,1
49 95 GOUY Quentin/THILLIEZ Quentin Citroën C2 R2 R 2 1:33:24,6 +16:59,1 +00:00,2
50 48 PRIOLO Laurent/DALMAS Yannick Mitsubishi Lancer Evo9 N 4 1:33:44,3 +17:18,8 +00:19,7
51 86 MARCOBAL Thierry/MARCOBAL-BASTIDE Cantin Citroën Saxo T4 FA 6K 1:34:16,3 +17:50,8 +00:32,0
52 80 GUINCHARD Emmanuel/CHATELAIN Mickaël Peugeot 207 Rc R 3 1:34:28,6 +18:03,1 +00:12,3
53 132 SABATIER Florent/SANTIAGO Thomas Peugeot 106 S16 FA 6 1:34:43,4 +18:17,9 +00:14,8 1 2
54 64 HAIGH-SMITH Ashley/BURNS Niall Peugeot 208 VTI R 2 1:34:49,7 +18:24,2 +00:06,3 3
55 67 JAMET Jérémy/SECACHE Michaël Peugeot 208 VTI R 2 1:35:05,1 +18:39,6 +00:15,4 3
56 99 FOTIA Anthony/MILLET Kévin Ford Fiesta R2 R 2 1:35:24,4 +18:58,9 +00:19,3
57 90 COLOMBE Geoffroy/FABREGUE Régis Peugeot 206 XS FA 6K 1:35:36,1 +19:10,6 +00:11,7
58 113 BLANCK Lionel/BLANCK Arnaud Peugeot 206 Rc F2 14 1:35:42,1 +19:16,6 +00:06,0
59 97 MARGAILLAN Hugo/POUJOL Sébastien Ford Fiesta R2 R 2 1:36:03,3 +19:37,8 +00:21,2
60 91 BERTON Charlotte/TAILLANDIER Thomas Citroën Saxo T4 FA 6K 1:36:03,5 +19:38,0 +00:00,2
61 98 DEFANTE Romain/TEMPIER Romain Ford Fiesta R2 R 2 1:36:06,2 +19:40,7 +00:02,7
62 125 BELLIARDO Daniel/BRAQUET Jean-Baptiste Peugeot 306 S16 FN 3 1:36:33,7 +20:08,2 +00:27,5
63 89 CREPIN Maude/FRANCOIS Léa Citroën Saxo T4 FA 6K 1:36:52,6 +20:27,1 +00:18,9
64 96 PUVERIC Gilles/LE BORGNE Didier Peugeot 208 VTI R 2 1:37:40,5 +21:15,0 +00:47,9
65 77 DAZY Jean-Pierre/LOIZEAUX Didier Renault Clio R3 R 3 1:37:47,3 +21:21,8 +00:06,8 1 2
66 45 ECK Jean-Luc/ECK Aurélien Subaru Impreza N 4 1:38:35,7 +22:10,2 +00:48,4
67 78 BOUCHET Guillaume/BLAMPEY Fabien Peugeot 207 Rc R 3 1:38:36,7 +22:11,2 +00:01,0
68 88 QUARROZ Damien/VOLPI Cécile Citroën Saxo T4 FA 6K 1:38:40,1 +22:14,6 +00:03,4
69 115 MORARD Philippe/GROLIER Cédric Citroën ZX 16V F2 14 1:38:50,9 +22:25,4 +00:10,8
70 47 CAMPAGNOLI Gabriele/ARENA Nicola Subaru Impreza WRX N 4 1:39:18,5 +22:53,0 +00:27,6
71 112 REGORD Hervé/REGORD Camille Peugeot 205 GTI F2 14 1:39:20,8 +22:55,3 +00:02,3 1 2
72 126 VANTILLARD Jean-Marc/DARRAS Pascaline Peugeot 206 Rc FN 3 1:39:37,3 +23:11,8 +00:16,5
73 145 BRISSON Eddy/MASSON Pascal Suzuki Swift FN 2 1:39:46,2 +23:20,7 +00:08,9
74 127 LESCURE Philippe/ESCAICH Bertrand Peugeot 306 S16 FN 3 1:39:50,6 +23:25,1 +00:04,4
75 120 RIEU Vincent/DEIXONNE Charles Renault Clio Ragnotti F2 14 1:39:53,8 +23:28,3 +00:03,2
76 134 RALITE Christophe/ABBAL Marie Peugeot 106 S16 FA 6 1:40:10,4 +23:44,9 +00:16,6
77 92 BRENIAUX Sébastien/JACQUES Anthony Peugeot 206 XS FA 6K 1:40:23,8 +23:58,3 +00:13,4
78 135 RAMEL Olivier/BODENMANN Jacques-Victor Peugeot 106 GT FA 6 1:40:59,2 +24:33,7 +00:35,4
79 136 FOURNIER Nicolas/VATTEAU Kévin Peugeot 206 XS F2 13 1:41:51,3 +25:25,8 +00:52,1
80 106 GELLUSSEAU Luc/DEJOUX Charly Peugeot 306 S16 FA 7 1:43:22,8 +26:57,3 +01:31,5
81 146 DOLGOPYATOFF Damien/FRANCOIS Solene Suzuki Swift FN 2 1:44:09,3 +27:43,8 +00:46,5
82 148 LATIEZE Yvan/GOUY Cindy Peugeot 106 S16 FN 2 1:44:11,3 +27:45,8 +00:02,0
83 151 ROCHE Ivan/GREVOT Florian Peugeot 106 XSI F2 12 1:44:41,0 +28:15,5 +00:29,7 1 2
84 150 VAILLE Mickaël/SAVA-LOPEZ Sabrina Peugeot 205 GTI FN 2 1:44:45,9 +28:20,4 +00:04,9
85 140 VAYSSE Adrien/LAURENS Clément Peugeot 106 S16 F2 13 1:44:55,0 +28:29,5 +00:09,1
86 142 BRENGUES Jean-Marie/BRENGUES Mélanie Peugeot 205 GTI F2 13 1:45:28,7 +29:03,2 +00:33,7
87 139 GELY Michel/VALENTIN Cédric Peugeot 206 XS F2 13 1:45:40,3 +29:14,8 +00:11,6
88 152 VUITTENEZ Victorien/COTE COLISSON Maxime Peugeot 106 XSI FN 1 1:45:41,5 +29:16,0 +00:01,2
89 104 FRELAUT Yohann/CASSAGNADE Pascal Peugeot 206 Rc FA 7 1:46:03,8 +29:38,3 +00:22,3
90 117 ROUCOULY Mathieu/GILHODES Jean-Louis Peugeot 309 GTI 16S F2 14 1:46:39,2 +30:13,7 +00:35,4
91 153 CEUGNET Sébastien/LUCON Pascal Peugeot 106 XSI FN 1 1:47:38,5 +31:13,0 +00:59,3
92 108 GUILLON Jean-Luc/GUILLON Thibault Peugeot 206 GT FA 7 1:48:07,6 +31:42,1 +00:29,1
93 26 GLEY Jean-Pierre/AUBANEL Aurélien B.M.W. 325 iX FA 8 1:49:19,7 +32:54,2 +01:12,1
94 130 RESSOUCHE Charlotte/BARDOUX Pauline Ford Fiesta ST N 3 1:50:10,7 +33:45,2 +00:51,0
95 137 RAKOTOMALALA Andry/GORGET Chloé Peugeot 106 S16 F2 13 1:50:10,8 +33:45,3 +00:00,1
96 154 BES Yves/LE PICHON Christelle Peugeot 106 XR F2 11 1:54:03,6 +37:38,1 +03:52,8
97 144 TODESCHINI Florent/PORCHERON Giovanni Dacia Logan F2 13 1:54:39,2 +38:13,7 +00:35,6
98 103 TEVELLE Cédric/FACCIO Alexandra Peugeot 206 Rc FA 7 1:55:40,9 +39:15,4 +01:01,7
99 141 PICARD Erick/PONTILLE Hervé Dacia Logan F2 13 1:57:29,6 +41:04,1 +01:48,7
100 147 DI PAOLO Alain/MORILLON Frederika Peugeot 106 S16 FN 2 1:58:33,6 +42:08,1 +01:04,0
101 105 GAUTHIER Bernard/BLANQUET Muriel Peugeot 306 S16 FA 7 2:08:21,0 +51:55,5 +09:47,4
102 119 MOULIN François/BONNET Dorine Renault Clio RS F2 14 2:12:53,6 +56:28,1 +04:32,6
103 39 BENIER Thomas/PRASSE Cédric Subaru Impreza WRX N 4 4:31:32,9 +3:15:07,4 +2:18:39,3 1
104 94 JOUINES Jean/CHABBERT Martin Opel Adam Rally R FR2 4:46:04,9 +3:29:39,4 +14:32,0
105 155 SOUBIROUX Vincent/VIGUIE Florian Renault Clio F2 11 5:02:51,9 +3:46:26,4 +16:47,0
106 114 BOUZID Lilian/VERGNES Antony Peugeot 306 S16 F2 14 5:07:57,8 +3:51:32,3 +05:05,9
107 123 BALMONET/MONICO Celia Peugeot 309 GTI F2 14 5:10:05,4 +3:53:39,9 +02:07,6
108 122 VIDAL Marc/MONTARON Loïc Peugeot 309 GTI F2 14 5:14:05,4 +3:57:39,9 +04:00,0
109 110 CLEMENT Frédéric/COSTES François Peugeot 206 GT F2 14 5:15:42,3 +3:59:16,8 +01:36,9 1 2
110 2 BAUD Lionel/CRAEN Fabien Ford Focus WRC A 8W 5:25:23,8 +4:08:58,3 +09:41,5 1
111 68 CUFFI Tommaso/BOSI Massimiliano Peugeot 208 VTI R 2 5:31:19,7 +4:14:54,2 +05:55,9 3
112 66 MAISANO Brandon/PEBEYRE Pierre Peugeot 208 VTI R 2 5:32:29,6 +4:16:04,1 +01:09,9 3
113 118 SANHES Yves/SANHES Christine B.M.W. 318i Compact F2 14 5:32:50,9 +4:16:25,4 +00:21,3
114 22 LOPEZ Etienne/MERCIER Marjorie Subaru Impreza WRX FA 8 5:41:31,4 +4:25:05,9 +08:40,5
115 133 CHOQUER Mickaël/GROULIER Vincent Peugeot 206 XS FA 6 6:11:16,3 +4:54:50,8 +29:44,9
Clt Equipage Voiture Gr/Cl Temps Ecart 1er Ecart préc. Catégories
Commentaires: © PatricK Soft  
(Temps forfaitaires=couleur bleue)
Classés:115

Epreuve: Groupe: Catégorie:

 
Retour
Classement après ES9-Montsales - La Teulière (15.000 km)